Miles City, MT

9:54 PM MST on January 31, 2015 (GMT -0700)
Wiley | Change Station
CLOSE
Current Station
Airport
Location: Miles City,
Elevation: 2628 ft
Nearby Weather Stations

Elev 2628 ft 46.43 °N, 105.88 °W | Updated 11 minutes ago

Snow
Snow
7 °F
Feels Like -10 °F
N
15
Wind Variable Wind from NNE

Today
High -- | Low -- °F
--% Chance of Precip.
Yesterday
High -- | Low -- °F
Precip. -- in
7:28 AM 5:06 PM
Waxing Gibbous, 93% visible
Pressure 30.34 in
Visibility 1.8 miles
Clouds Overcast 2800 ft
Windchill -10 °F
Dew Point 2 °F
Humidity 80%
Rainfall 0.01 in
Snow Depth Not available.
UV 0 out of 12
Pollen .10 out of 12
Air Quality Not available.
Flu Activity Not available.
SPECI KMLS 010443Z AUTO 03013KT 1 3/4SM -SN OVC028 M14/M17 A3034 RMK AO2 P0000 T11391167

More Conditions Fewer Conditions

Pressure 30.34 in
Visibility 1.8 miles
Clouds Overcast 2800 ft
Windchill -10 °F
Dew Point 2 °F
Humidity 80%
Rainfall 0.01 in
Snow Depth Not available.
UV 0 out of 12
Pollen .10 out of 12
Air Quality Not available.
Flu Activity Not available.
SPECI KMLS 010443Z AUTO 03013KT 1 3/4SM -SN OVC028 M14/M17 A3034 RMK AO2 P0000 T11391167

More Conditions Fewer Conditions

10-Day Weather Forecast

Almanac

Astronomy

Jan. 31, 2015 Rise Set
Actual Time
Civil Twilight
Nautical Twilight
Astronomical Twilight
Moon
Length of Visible Light
Length of Day
Tomorrow will be .
, % of the Moon is Illuminated

Today's Extremes

State Highs State Lows

Community

WunderPhotos

Upload Photos

1,792,313 photos uploaded!

WunderBlogs® & News

Nearby

Air Quality

  Air Quality AQ Index Pollutant
Not available.

Snow Depth

Station Depth Elevation

Earthquake Activity

City Distance Mag. Time & Date
Minimum magnitude displayed is 2.5.

Coastal Water Temperatures

Place Temperature

Nearby Weather Stations